sensor_id;sensor_type;location;lat;lon;timestamp;temperature;humidity
51595;DHT22;37677;53.254;6.594;2022-08-19T00:00:16;15.80;1.00
51595;DHT22;37677;53.254;6.594;2022-08-19T00:02:42;15.90;1.00
51595;DHT22;37677;53.254;6.594;2022-08-19T00:05:09;15.90;1.00
51595;DHT22;37677;53.254;6.594;2022-08-19T00:07:36;15.80;1.00
51595;DHT22;37677;53.254;6.594;2022-08-19T00:10:04;15.80;1.00
51595;DHT22;37677;53.254;6.594;2022-08-19T00:12:30;15.80;1.00
51595;DHT22;37677;53.254;6.594;2022-08-19T00:14:56;15.80;1.70
51595;DHT22;37677;53.254;6.594;2022-08-19T00:17:21;15.80;2.40
51595;DHT22;37677;53.254;6.594;2022-08-19T00:19:47;15.70;2.40
51595;DHT22;37677;53.254;6.594;2022-08-19T00:22:13;15.70;3.40
51595;DHT22;37677;53.254;6.594;2022-08-19T00:24:39;15.70;4.60
51595;DHT22;37677;53.254;6.594;2022-08-19T00:27:06;15.60;5.00
51595;DHT22;37677;53.254;6.594;2022-08-19T00:29:32;15.60;4.40
51595;DHT22;37677;53.254;6.594;2022-08-19T00:31:58;15.60;4.20
51595;DHT22;37677;53.254;6.594;2022-08-19T00:34:25;15.50;4.40
51595;DHT22;37677;53.254;6.594;2022-08-19T00:36:55;15.50;5.30
51595;DHT22;37677;53.254;6.594;2022-08-19T00:39:21;15.50;6.30
51595;DHT22;37677;53.254;6.594;2022-08-19T00:41:48;15.40;6.60
51595;DHT22;37677;53.254;6.594;2022-08-19T00:44:21;15.40;7.10
51595;DHT22;37677;53.254;6.594;2022-08-19T00:46:49;15.40;8.00
51595;DHT22;37677;53.254;6.594;2022-08-19T00:49:20;15.40;8.70
51595;DHT22;37677;53.254;6.594;2022-08-19T00:51:51;15.40;9.00
51595;DHT22;37677;53.254;6.594;2022-08-19T00:54:17;15.40;8.40
51595;DHT22;37677;53.254;6.594;2022-08-19T00:56:44;15.30;8.00
51595;DHT22;37677;53.254;6.594;2022-08-19T00:59:10;15.30;7.00
51595;DHT22;37677;53.254;6.594;2022-08-19T01:01:37;15.30;7.60
51595;DHT22;37677;53.254;6.594;2022-08-19T01:04:04;15.20;8.40
51595;DHT22;37677;53.254;6.594;2022-08-19T01:06:31;15.30;8.70
51595;DHT22;37677;53.254;6.594;2022-08-19T01:08:58;15.20;9.30
51595;DHT22;37677;53.254;6.594;2022-08-19T01:11:24;15.20;10.40
51595;DHT22;37677;53.254;6.594;2022-08-19T01:13:52;15.20;10.80
51595;DHT22;37677;53.254;6.594;2022-08-19T01:16:19;15.20;11.30
51595;DHT22;37677;53.254;6.594;2022-08-19T01:18:46;15.10;11.10
51595;DHT22;37677;53.254;6.594;2022-08-19T01:21:22;15.10;11.50
51595;DHT22;37677;53.254;6.594;2022-08-19T01:23:49;15.10;11.70
51595;DHT22;37677;53.254;6.594;2022-08-19T01:26:19;15.10;12.00
51595;DHT22;37677;53.254;6.594;2022-08-19T01:28:47;15.10;12.30
51595;DHT22;37677;53.254;6.594;2022-08-19T01:31:17;15.10;12.70
51595;DHT22;37677;53.254;6.594;2022-08-19T01:33:44;15.10;12.80
51595;DHT22;37677;53.254;6.594;2022-08-19T01:36:15;15.00;12.00
51595;DHT22;37677;53.254;6.594;2022-08-19T01:38:43;15.00;11.40
51595;DHT22;37677;53.254;6.594;2022-08-19T01:41:11;15.00;11.70
51595;DHT22;37677;53.254;6.594;2022-08-19T01:43:37;15.10;12.30
51595;DHT22;37677;53.254;6.594;2022-08-19T01:46:03;15.00;11.90
51595;DHT22;37677;53.254;6.594;2022-08-19T01:48:38;15.00;11.60
51595;DHT22;37677;53.254;6.594;2022-08-19T01:51:04;15.00;13.10
51595;DHT22;37677;53.254;6.594;2022-08-19T01:53:30;15.10;13.50
51595;DHT22;37677;53.254;6.594;2022-08-19T01:55:56;14.90;13.80
51595;DHT22;37677;53.254;6.594;2022-08-19T01:58:29;15.00;14.20
51595;DHT22;37677;53.254;6.594;2022-08-19T02:00:56;15.10;14.80
51595;DHT22;37677;53.254;6.594;2022-08-19T02:03:21;15.00;14.60
51595;DHT22;37677;53.254;6.594;2022-08-19T02:05:48;15.10;14.30
51595;DHT22;37677;53.254;6.594;2022-08-19T02:08:18;15.10;14.40
51595;DHT22;37677;53.254;6.594;2022-08-19T02:10:44;15.20;14.80
51595;DHT22;37677;53.254;6.594;2022-08-19T02:13:11;15.30;15.40
51595;DHT22;37677;53.254;6.594;2022-08-19T02:15:37;15.50;15.10
51595;DHT22;37677;53.254;6.594;2022-08-19T02:18:03;15.30;14.70
51595;DHT22;37677;53.254;6.594;2022-08-19T02:20:29;15.40;16.50
51595;DHT22;37677;53.254;6.594;2022-08-19T02:22:54;15.40;16.90
51595;DHT22;37677;53.254;6.594;2022-08-19T02:25:20;15.40;16.90
51595;DHT22;37677;53.254;6.594;2022-08-19T02:27:46;15.60;16.60
51595;DHT22;37677;53.254;6.594;2022-08-19T02:30:14;15.40;16.90
51595;DHT22;37677;53.254;6.594;2022-08-19T02:32:41;15.30;16.40
51595;DHT22;37677;53.254;6.594;2022-08-19T02:35:08;15.30;16.50
51595;DHT22;37677;53.254;6.594;2022-08-19T02:37:34;15.30;16.00
51595;DHT22;37677;53.254;6.594;2022-08-19T02:40:18;15.30;15.80
51595;DHT22;37677;53.254;6.594;2022-08-19T02:42:45;15.30;15.50
51595;DHT22;37677;53.254;6.594;2022-08-19T02:45:14;15.40;15.20
51595;DHT22;37677;53.254;6.594;2022-08-19T02:47:40;15.40;15.00
51595;DHT22;37677;53.254;6.594;2022-08-19T02:50:06;15.40;14.80
51595;DHT22;37677;53.254;6.594;2022-08-19T02:52:33;15.50;14.60
51595;DHT22;37677;53.254;6.594;2022-08-19T02:54:59;15.50;14.30
51595;DHT22;37677;53.254;6.594;2022-08-19T02:57:25;15.50;14.90
51595;DHT22;37677;53.254;6.594;2022-08-19T02:59:52;15.50;14.90
51595;DHT22;37677;53.254;6.594;2022-08-19T03:02:18;15.40;15.10
51595;DHT22;37677;53.254;6.594;2022-08-19T03:04:43;15.40;17.30
51595;DHT22;37677;53.254;6.594;2022-08-19T03:07:13;15.40;18.20
51595;DHT22;37677;53.254;6.594;2022-08-19T03:09:39;15.40;19.70
51595;DHT22;37677;53.254;6.594;2022-08-19T03:12:05;15.30;18.90
51595;DHT22;37677;53.254;6.594;2022-08-19T03:14:32;15.50;19.60
51595;DHT22;37677;53.254;6.594;2022-08-19T03:16:57;15.50;20.60
51595;DHT22;37677;53.254;6.594;2022-08-19T03:19:23;15.40;20.70
51595;DHT22;37677;53.254;6.594;2022-08-19T03:21:50;15.10;20.90
51595;DHT22;37677;53.254;6.594;2022-08-19T03:24:16;15.50;20.70
51595;DHT22;37677;53.254;6.594;2022-08-19T03:26:45;15.40;20.20
51595;DHT22;37677;53.254;6.594;2022-08-19T03:29:12;15.40;19.90
51595;DHT22;37677;53.254;6.594;2022-08-19T03:31:39;15.50;19.80
51595;DHT22;37677;53.254;6.594;2022-08-19T03:34:05;15.50;21.00
51595;DHT22;37677;53.254;6.594;2022-08-19T03:36:31;15.50;21.50
51595;DHT22;37677;53.254;6.594;2022-08-19T03:38:59;15.50;21.70
51595;DHT22;37677;53.254;6.594;2022-08-19T03:41:28;15.40;21.60
51595;DHT22;37677;53.254;6.594;2022-08-19T03:43:54;15.40;21.10
51595;DHT22;37677;53.254;6.594;2022-08-19T03:46:23;15.40;21.00
51595;DHT22;37677;53.254;6.594;2022-08-19T03:48:51;15.60;21.20
51595;DHT22;37677;53.254;6.594;2022-08-19T03:51:24;15.40;21.70
51595;DHT22;37677;53.254;6.594;2022-08-19T03:53:50;15.50;21.70
51595;DHT22;37677;53.254;6.594;2022-08-19T03:56:16;15.30;21.30
51595;DHT22;37677;53.254;6.594;2022-08-19T03:58:42;15.40;21.90
51595;DHT22;37677;53.254;6.594;2022-08-19T04:01:15;15.30;21.50
51595;DHT22;37677;53.254;6.594;2022-08-19T04:03:41;15.30;21.70
51595;DHT22;37677;53.254;6.594;2022-08-19T04:06:28;15.30;21.50
51595;DHT22;37677;53.254;6.594;2022-08-19T04:08:57;15.30;22.10
51595;DHT22;37677;53.254;6.594;2022-08-19T04:11:34;15.30;21.40
51595;DHT22;37677;53.254;6.594;2022-08-19T04:14:00;15.30;21.80
51595;DHT22;37677;53.254;6.594;2022-08-19T04:16:28;15.20;21.60
51595;DHT22;37677;53.254;6.594;2022-08-19T04:18:59;15.20;21.50
51595;DHT22;37677;53.254;6.594;2022-08-19T04:21:26;15.20;21.50
51595;DHT22;37677;53.254;6.594;2022-08-19T04:23:53;15.20;21.80
51595;DHT22;37677;53.254;6.594;2022-08-19T04:26:26;15.20;21.30
51595;DHT22;37677;53.254;6.594;2022-08-19T04:28:52;15.20;21.70
51595;DHT22;37677;53.254;6.594;2022-08-19T04:31:21;15.20;21.80
51595;DHT22;37677;53.254;6.594;2022-08-19T04:33:47;15.30;21.80
51595;DHT22;37677;53.254;6.594;2022-08-19T04:36:19;15.20;21.50
51595;DHT22;37677;53.254;6.594;2022-08-19T04:38:49;15.30;21.60
51595;DHT22;37677;53.254;6.594;2022-08-19T04:41:15;15.30;21.70
51595;DHT22;37677;53.254;6.594;2022-08-19T04:44:00;15.30;22.40
51595;DHT22;37677;53.254;6.594;2022-08-19T04:46:27;15.30;22.50
51595;DHT22;37677;53.254;6.594;2022-08-19T04:48:54;15.60;23.30
51595;DHT22;37677;53.254;6.594;2022-08-19T04:51:22;15.30;23.40
51595;DHT22;37677;53.254;6.594;2022-08-19T04:53:47;15.20;23.60
51595;DHT22;37677;53.254;6.594;2022-08-19T04:56:16;15.30;23.60
51595;DHT22;37677;53.254;6.594;2022-08-19T04:58:43;15.30;24.20
51595;DHT22;37677;53.254;6.594;2022-08-19T05:01:15;15.30;24.80
51595;DHT22;37677;53.254;6.594;2022-08-19T05:03:42;15.40;25.40
51595;DHT22;37677;53.254;6.594;2022-08-19T05:06:11;15.40;25.50
51595;DHT22;37677;53.254;6.594;2022-08-19T05:08:39;15.30;25.50
51595;DHT22;37677;53.254;6.594;2022-08-19T05:11:11;15.40;26.40
51595;DHT22;37677;53.254;6.594;2022-08-19T05:13:38;15.40;26.70
51595;DHT22;37677;53.254;6.594;2022-08-19T05:16:03;15.40;26.70
51595;DHT22;37677;53.254;6.594;2022-08-19T05:18:29;15.50;26.90
51595;DHT22;37677;53.254;6.594;2022-08-19T05:21:16;15.50;27.80
51595;DHT22;37677;53.254;6.594;2022-08-19T05:24:00;15.60;28.70
51595;DHT22;37677;53.254;6.594;2022-08-19T05:26:27;15.60;28.60
51595;DHT22;37677;53.254;6.594;2022-08-19T05:28:53;15.70;28.30
51595;DHT22;37677;53.254;6.594;2022-08-19T05:31:20;15.80;28.40
51595;DHT22;37677;53.254;6.594;2022-08-19T05:33:45;15.80;28.20
51595;DHT22;37677;53.254;6.594;2022-08-19T05:36:11;15.80;28.00
51595;DHT22;37677;53.254;6.594;2022-08-19T05:38:38;15.90;27.80
51595;DHT22;37677;53.254;6.594;2022-08-19T05:41:11;15.90;28.00
51595;DHT22;37677;53.254;6.594;2022-08-19T05:43:37;16.10;27.70
51595;DHT22;37677;53.254;6.594;2022-08-19T05:46:04;16.20;27.40
51595;DHT22;37677;53.254;6.594;2022-08-19T05:48:32;16.40;31.80
51595;DHT22;37677;53.254;6.594;2022-08-19T05:50:58;16.50;29.00
51595;DHT22;37677;53.254;6.594;2022-08-19T05:53:25;16.60;28.50
51595;DHT22;37677;53.254;6.594;2022-08-19T05:55:50;16.70;29.20
51595;DHT22;37677;53.254;6.594;2022-08-19T05:58:16;16.90;29.20
51595;DHT22;37677;53.254;6.594;2022-08-19T06:00:43;17.00;28.30
51595;DHT22;37677;53.254;6.594;2022-08-19T06:03:09;17.20;26.10
51595;DHT22;37677;53.254;6.594;2022-08-19T06:05:35;17.40;24.90
51595;DHT22;37677;53.254;6.594;2022-08-19T06:08:01;17.60;23.40
51595;DHT22;37677;53.254;6.594;2022-08-19T06:10:27;17.80;20.90
51595;DHT22;37677;53.254;6.594;2022-08-19T06:12:53;18.10;14.50
51595;DHT22;37677;53.254;6.594;2022-08-19T06:15:19;18.30;5.90
51595;DHT22;37677;53.254;6.594;2022-08-19T06:17:45;18.40;1.00
51595;DHT22;37677;53.254;6.594;2022-08-19T06:20:13;18.60;1.00
51595;DHT22;37677;53.254;6.594;2022-08-19T06:22:45;18.70;1.00
51595;DHT22;37677;53.254;6.594;2022-08-19T06:25:13;18.80;1.00
51595;DHT22;37677;53.254;6.594;2022-08-19T06:27:40;19.00;1.00
51595;DHT22;37677;53.254;6.594;2022-08-19T06:30:06;19.20;1.00
51595;DHT22;37677;53.254;6.594;2022-08-19T06:32:32;19.50;1.00
51595;DHT22;37677;53.254;6.594;2022-08-19T06:34:58;19.70;1.00
51595;DHT22;37677;53.254;6.594;2022-08-19T06:37:24;19.80;1.00
51595;DHT22;37677;53.254;6.594;2022-08-19T06:39:51;19.90;1.00
51595;DHT22;37677;53.254;6.594;2022-08-19T06:42:17;19.80;1.00
51595;DHT22;37677;53.254;6.594;2022-08-19T06:44:46;20.00;1.00
51595;DHT22;37677;53.254;6.594;2022-08-19T06:47:14;19.90;1.00
51595;DHT22;37677;53.254;6.594;2022-08-19T06:49:41;20.10;1.00
51595;DHT22;37677;53.254;6.594;2022-08-19T06:52:08;20.10;1.00
51595;DHT22;37677;53.254;6.594;2022-08-19T06:54:37;20.10;99.90
51595;DHT22;37677;53.254;6.594;2022-08-19T06:57:03;20.00;1.00
51595;DHT22;37677;53.254;6.594;2022-08-19T06:59:30;20.20;1.00
51595;DHT22;37677;53.254;6.594;2022-08-19T07:01:59;20.30;99.90
51595;DHT22;37677;53.254;6.594;2022-08-19T07:04:28;20.40;1.00
51595;DHT22;37677;53.254;6.594;2022-08-19T07:07:07;20.60;99.90
51595;DHT22;37677;53.254;6.594;2022-08-19T07:09:35;20.60;99.90
51595;DHT22;37677;53.254;6.594;2022-08-19T07:12:04;20.60;99.90
51595;DHT22;37677;53.254;6.594;2022-08-19T07:14:30;20.60;99.90
51595;DHT22;37677;53.254;6.594;2022-08-19T07:16:56;20.60;99.90
51595;DHT22;37677;53.254;6.594;2022-08-19T07:19:23;20.60;99.90
51595;DHT22;37677;53.254;6.594;2022-08-19T07:21:52;20.70;99.90
51595;DHT22;37677;53.254;6.594;2022-08-19T07:24:22;20.70;99.90
51595;DHT22;37677;53.254;6.594;2022-08-19T07:26:53;20.70;99.90
51595;DHT22;37677;53.254;6.594;2022-08-19T07:29:21;20.70;99.90
51595;DHT22;37677;53.254;6.594;2022-08-19T07:31:49;20.80;99.90
51595;DHT22;37677;53.254;6.594;2022-08-19T07:34:16;20.90;99.90
51595;DHT22;37677;53.254;6.594;2022-08-19T07:36:43;20.90;99.90
51595;DHT22;37677;53.254;6.594;2022-08-19T07:39:17;21.10;99.90
51595;DHT22;37677;53.254;6.594;2022-08-19T07:41:43;21.20;99.90
51595;DHT22;37677;53.254;6.594;2022-08-19T07:44:10;21.30;99.90
51595;DHT22;37677;53.254;6.594;2022-08-19T07:46:39;21.30;99.90
51595;DHT22;37677;53.254;6.594;2022-08-19T07:49:06;21.40;99.90
51595;DHT22;37677;53.254;6.594;2022-08-19T07:51:34;21.40;1.00
51595;DHT22;37677;53.254;6.594;2022-08-19T07:54:00;21.50;51.30
51595;DHT22;37677;53.254;6.594;2022-08-19T07:56:26;21.60;48.60
51595;DHT22;37677;53.254;6.594;2022-08-19T07:58:52;21.80;7.10
51595;DHT22;37677;53.254;6.594;2022-08-19T08:01:21;21.90;1.00
51595;DHT22;37677;53.254;6.594;2022-08-19T08:03:48;22.10;1.00
51595;DHT22;37677;53.254;6.594;2022-08-19T08:06:33;22.10;1.00
51595;DHT22;37677;53.254;6.594;2022-08-19T08:09:24;22.20;99.90
51595;DHT22;37677;53.254;6.594;2022-08-19T08:11:59;22.10;99.90
51595;DHT22;37677;53.254;6.594;2022-08-19T08:14:46;22.20;99.90
51595;DHT22;37677;53.254;6.594;2022-08-19T08:17:14;22.20;1.00
51595;DHT22;37677;53.254;6.594;2022-08-19T08:19:41;22.30;39.40
51595;DHT22;37677;53.254;6.594;2022-08-19T08:22:08;22.50;1.00
51595;DHT22;37677;53.254;6.594;2022-08-19T08:24:55;22.70;1.00
51595;DHT22;37677;53.254;6.594;2022-08-19T08:27:23;22.70;1.00
51595;DHT22;37677;53.254;6.594;2022-08-19T08:29:49;22.70;1.00
51595;DHT22;37677;53.254;6.594;2022-08-19T08:32:15;22.80;99.90
51595;DHT22;37677;53.254;6.594;2022-08-19T08:34:41;22.80;99.90
51595;DHT22;37677;53.254;6.594;2022-08-19T08:37:07;22.90;1.00
51595;DHT22;37677;53.254;6.594;2022-08-19T08:39:33;23.00;99.90
51595;DHT22;37677;53.254;6.594;2022-08-19T08:47:18;23.40;99.90
51595;DHT22;37677;53.254;6.594;2022-08-19T08:49:55;23.40;99.90
51595;DHT22;37677;53.254;6.594;2022-08-19T08:52:28;23.30;1.00
51595;DHT22;37677;53.254;6.594;2022-08-19T08:54:57;23.50;99.90
51595;DHT22;37677;53.254;6.594;2022-08-19T08:57:29;23.70;99.90
51595;DHT22;37677;53.254;6.594;2022-08-19T08:59:57;23.60;11.50
51595;DHT22;37677;53.254;6.594;2022-08-19T09:02:25;23.70;1.00
51595;DHT22;37677;53.254;6.594;2022-08-19T09:04:53;23.50;1.00
51595;DHT22;37677;53.254;6.594;2022-08-19T09:07:25;23.70;1.00
51595;DHT22;37677;53.254;6.594;2022-08-19T09:10:06;23.70;58.00
51595;DHT22;37677;53.254;6.594;2022-08-19T09:13:02;23.90;99.90
51595;DHT22;37677;53.254;6.594;2022-08-19T09:15:45;24.00;1.00
51595;DHT22;37677;53.254;6.594;2022-08-19T09:18:14;23.90;1.00
51595;DHT22;37677;53.254;6.594;2022-08-19T09:20:41;23.70;88.40
51595;DHT22;37677;53.254;6.594;2022-08-19T09:23:07;24.10;99.90
51595;DHT22;37677;53.254;6.594;2022-08-19T09:25:33;24.40;1.00
51595;DHT22;37677;53.254;6.594;2022-08-19T09:28:00;24.60;1.00
51595;DHT22;37677;53.254;6.594;2022-08-19T09:30:32;24.80;1.00
51595;DHT22;37677;53.254;6.594;2022-08-19T09:32:58;24.80;99.90
51595;DHT22;37677;53.254;6.594;2022-08-19T09:35:26;24.90;99.90
51595;DHT22;37677;53.254;6.594;2022-08-19T09:37:54;25.00;83.50
51595;DHT22;37677;53.254;6.594;2022-08-19T09:40:21;25.10;13.40
51595;DHT22;37677;53.254;6.594;2022-08-19T09:42:47;25.30;1.00
51595;DHT22;37677;53.254;6.594;2022-08-19T09:45:14;25.40;1.00
51595;DHT22;37677;53.254;6.594;2022-08-19T09:47:40;25.50;99.90
51595;DHT22;37677;53.254;6.594;2022-08-19T09:50:08;25.60;93.50
51595;DHT22;37677;53.254;6.594;2022-08-19T09:52:34;25.60;55.70
51595;DHT22;37677;53.254;6.594;2022-08-19T09:55:07;25.60;1.00
51595;DHT22;37677;53.254;6.594;2022-08-19T09:57:33;25.80;1.00
51595;DHT22;37677;53.254;6.594;2022-08-19T09:59:59;26.30;1.00
51595;DHT22;37677;53.254;6.594;2022-08-19T10:02:24;27.00;1.00
51595;DHT22;37677;53.254;6.594;2022-08-19T10:04:51;27.50;99.90
51595;DHT22;37677;53.254;6.594;2022-08-19T10:07:36;28.00;99.90
51595;DHT22;37677;53.254;6.594;2022-08-19T10:10:05;28.60;49.10
51595;DHT22;37677;53.254;6.594;2022-08-19T10:12:32;28.10;1.00
51595;DHT22;37677;53.254;6.594;2022-08-19T10:14:59;28.10;1.00
51595;DHT22;37677;53.254;6.594;2022-08-19T10:17:25;28.10;1.00
51595;DHT22;37677;53.254;6.594;2022-08-19T10:19:51;27.80;1.00
51595;DHT22;37677;53.254;6.594;2022-08-19T10:22:17;28.00;1.00
51595;DHT22;37677;53.254;6.594;2022-08-19T10:24:43;28.00;1.00
51595;DHT22;37677;53.254;6.594;2022-08-19T10:27:09;28.20;1.00
51595;DHT22;37677;53.254;6.594;2022-08-19T10:29:35;28.00;99.90
51595;DHT22;37677;53.254;6.594;2022-08-19T10:32:01;28.00;99.90
51595;DHT22;37677;53.254;6.594;2022-08-19T10:34:28;28.10;99.90
51595;DHT22;37677;53.254;6.594;2022-08-19T10:36:55;28.00;99.90
51595;DHT22;37677;53.254;6.594;2022-08-19T10:39:21;28.00;99.90
51595;DHT22;37677;53.254;6.594;2022-08-19T10:41:47;28.10;99.90
51595;DHT22;37677;53.254;6.594;2022-08-19T10:44:13;27.60;99.90
51595;DHT22;37677;53.254;6.594;2022-08-19T10:46:42;27.30;99.90
51595;DHT22;37677;53.254;6.594;2022-08-19T10:49:11;27.10;99.90
51595;DHT22;37677;53.254;6.594;2022-08-19T10:51:40;27.20;99.90
51595;DHT22;37677;53.254;6.594;2022-08-19T10:54:26;27.30;99.90
51595;DHT22;37677;53.254;6.594;2022-08-19T10:57:12;26.90;99.90
51595;DHT22;37677;53.254;6.594;2022-08-19T10:59:37;27.30;99.90
51595;DHT22;37677;53.254;6.594;2022-08-19T11:02:06;27.40;99.90
51595;DHT22;37677;53.254;6.594;2022-08-19T11:04:32;27.50;99.90
51595;DHT22;37677;53.254;6.594;2022-08-19T11:06:58;27.60;99.90
51595;DHT22;37677;53.254;6.594;2022-08-19T11:09:26;27.30;99.90
51595;DHT22;37677;53.254;6.594;2022-08-19T11:11:55;26.80;99.90
51595;DHT22;37677;53.254;6.594;2022-08-19T11:14:23;26.60;99.90
51595;DHT22;37677;53.254;6.594;2022-08-19T11:16:50;26.40;99.90
51595;DHT22;37677;53.254;6.594;2022-08-19T11:19:17;26.20;99.90
51595;DHT22;37677;53.254;6.594;2022-08-19T11:21:47;26.30;99.90
51595;DHT22;37677;53.254;6.594;2022-08-19T11:24:18;26.40;99.90
51595;DHT22;37677;53.254;6.594;2022-08-19T11:26:46;26.90;99.90
51595;DHT22;37677;53.254;6.594;2022-08-19T11:29:13;27.00;99.90
51595;DHT22;37677;53.254;6.594;2022-08-19T11:31:42;26.70;99.90
51595;DHT22;37677;53.254;6.594;2022-08-19T11:34:11;27.30;99.90
51595;DHT22;37677;53.254;6.594;2022-08-19T11:36:40;27.10;99.90
51595;DHT22;37677;53.254;6.594;2022-08-19T11:39:07;26.60;99.90
51595;DHT22;37677;53.254;6.594;2022-08-19T11:41:33;26.40;99.90
51595;DHT22;37677;53.254;6.594;2022-08-19T11:43:59;26.20;99.90
51595;DHT22;37677;53.254;6.594;2022-08-19T11:46:26;26.00;99.90
51595;DHT22;37677;53.254;6.594;2022-08-19T11:48:55;25.70;99.90
51595;DHT22;37677;53.254;6.594;2022-08-19T11:51:22;25.60;99.90
51595;DHT22;37677;53.254;6.594;2022-08-19T11:53:50;25.50;99.90
51595;DHT22;37677;53.254;6.594;2022-08-19T11:56:17;25.40;99.90
51595;DHT22;37677;53.254;6.594;2022-08-19T11:58:42;25.30;99.90
51595;DHT22;37677;53.254;6.594;2022-08-19T12:01:10;25.10;99.90
51595;DHT22;37677;53.254;6.594;2022-08-19T12:03:37;25.10;99.90
51595;DHT22;37677;53.254;6.594;2022-08-19T12:06:11;25.00;99.90
51595;DHT22;37677;53.254;6.594;2022-08-19T12:08:39;25.00;99.90
51595;DHT22;37677;53.254;6.594;2022-08-19T12:11:05;24.90;99.90
51595;DHT22;37677;53.254;6.594;2022-08-19T12:13:34;24.90;99.90
51595;DHT22;37677;53.254;6.594;2022-08-19T12:16:00;24.80;99.90
51595;DHT22;37677;53.254;6.594;2022-08-19T12:18:26;24.90;99.90
51595;DHT22;37677;53.254;6.594;2022-08-19T12:20:53;25.00;99.90
51595;DHT22;37677;53.254;6.594;2022-08-19T12:23:20;24.90;99.90
51595;DHT22;37677;53.254;6.594;2022-08-19T12:25:47;25.00;99.90
51595;DHT22;37677;53.254;6.594;2022-08-19T12:28:20;25.10;99.90
51595;DHT22;37677;53.254;6.594;2022-08-19T12:30:47;25.20;99.90
51595;DHT22;37677;53.254;6.594;2022-08-19T12:33:14;25.20;99.90
51595;DHT22;37677;53.254;6.594;2022-08-19T12:35:41;25.50;99.90
51595;DHT22;37677;53.254;6.594;2022-08-19T12:38:08;25.60;99.90
51595;DHT22;37677;53.254;6.594;2022-08-19T12:40:34;25.60;99.90
51595;DHT22;37677;53.254;6.594;2022-08-19T12:42:59;25.70;99.90
51595;DHT22;37677;53.254;6.594;2022-08-19T12:45:25;25.60;99.90
51595;DHT22;37677;53.254;6.594;2022-08-19T12:47:51;25.60;99.90
51595;DHT22;37677;53.254;6.594;2022-08-19T12:50:18;25.50;99.90
51595;DHT22;37677;53.254;6.594;2022-08-19T12:52:47;25.40;99.90
51595;DHT22;37677;53.254;6.594;2022-08-19T12:55:13;25.40;99.90
51595;DHT22;37677;53.254;6.594;2022-08-19T12:57:39;25.30;99.90
51595;DHT22;37677;53.254;6.594;2022-08-19T13:00:09;25.30;99.90
51595;DHT22;37677;53.254;6.594;2022-08-19T13:02:41;25.40;99.90
51595;DHT22;37677;53.254;6.594;2022-08-19T13:05:12;25.50;99.90
51595;DHT22;37677;53.254;6.594;2022-08-19T13:07:40;25.50;99.90
51595;DHT22;37677;53.254;6.594;2022-08-19T13:10:07;25.40;99.90
51595;DHT22;37677;53.254;6.594;2022-08-19T13:12:34;25.40;99.90
51595;DHT22;37677;53.254;6.594;2022-08-19T13:15:01;25.30;99.90
51595;DHT22;37677;53.254;6.594;2022-08-19T13:17:27;25.10;99.90
51595;DHT22;37677;53.254;6.594;2022-08-19T13:19:53;25.10;99.90
51595;DHT22;37677;53.254;6.594;2022-08-19T13:22:18;25.00;99.90
51595;DHT22;37677;53.254;6.594;2022-08-19T13:24:44;24.90;99.90
51595;DHT22;37677;53.254;6.594;2022-08-19T13:27:10;24.80;99.90
51595;DHT22;37677;53.254;6.594;2022-08-19T13:29:35;24.60;1.00
51595;DHT22;37677;53.254;6.594;2022-08-19T13:32:20;24.50;57.90
51595;DHT22;37677;53.254;6.594;2022-08-19T13:35:05;24.40;99.90
51595;DHT22;37677;53.254;6.594;2022-08-19T13:37:31;24.30;1.00
51595;DHT22;37677;53.254;6.594;2022-08-19T13:40:21;24.20;1.00
51595;DHT22;37677;53.254;6.594;2022-08-19T13:42:51;24.10;99.90
51595;DHT22;37677;53.254;6.594;2022-08-19T13:45:22;24.10;99.90
51595;DHT22;37677;53.254;6.594;2022-08-19T13:47:50;24.00;1.00
51595;DHT22;37677;53.254;6.594;2022-08-19T13:50:20;24.00;99.90
51595;DHT22;37677;53.254;6.594;2022-08-19T13:52:46;24.00;1.00
51595;DHT22;37677;53.254;6.594;2022-08-19T13:55:14;24.00;1.00
51595;DHT22;37677;53.254;6.594;2022-08-19T13:57:41;24.10;99.90
51595;DHT22;37677;53.254;6.594;2022-08-19T14:00:15;24.10;99.90
51595;DHT22;37677;53.254;6.594;2022-08-19T14:02:44;24.10;99.90
51595;DHT22;37677;53.254;6.594;2022-08-19T14:05:12;24.00;1.00
51595;DHT22;37677;53.254;6.594;2022-08-19T14:07:38;24.00;1.00
51595;DHT22;37677;53.254;6.594;2022-08-19T14:10:06;24.00;95.40
51595;DHT22;37677;53.254;6.594;2022-08-19T14:12:32;23.90;99.90
51595;DHT22;37677;53.254;6.594;2022-08-19T14:14:59;23.90;72.20
51595;DHT22;37677;53.254;6.594;2022-08-19T14:17:25;23.80;99.90
51595;DHT22;37677;53.254;6.594;2022-08-19T14:19:59;23.90;1.00
51595;DHT22;37677;53.254;6.594;2022-08-19T14:22:36;23.90;99.90
51595;DHT22;37677;53.254;6.594;2022-08-19T14:25:07;23.90;99.90
51595;DHT22;37677;53.254;6.594;2022-08-19T14:27:35;23.90;99.90
51595;DHT22;37677;53.254;6.594;2022-08-19T14:30:06;23.90;99.90
51595;DHT22;37677;53.254;6.594;2022-08-19T14:32:34;23.90;99.90
51595;DHT22;37677;53.254;6.594;2022-08-19T14:35:00;23.80;99.90
51595;DHT22;37677;53.254;6.594;2022-08-19T14:37:26;23.80;99.90
51595;DHT22;37677;53.254;6.594;2022-08-19T14:39:51;23.80;99.90
51595;DHT22;37677;53.254;6.594;2022-08-19T14:42:17;24.00;99.90
51595;DHT22;37677;53.254;6.594;2022-08-19T14:44:43;24.10;99.90
51595;DHT22;37677;53.254;6.594;2022-08-19T14:47:09;24.30;99.90
51595;DHT22;37677;53.254;6.594;2022-08-19T14:49:35;24.40;99.90
51595;DHT22;37677;53.254;6.594;2022-08-19T14:52:01;24.70;99.90
51595;DHT22;37677;53.254;6.594;2022-08-19T14:54:26;24.50;99.90
51595;DHT22;37677;53.254;6.594;2022-08-19T14:56:52;24.40;99.90
51595;DHT22;37677;53.254;6.594;2022-08-19T14:59:18;24.30;1.00
51595;DHT22;37677;53.254;6.594;2022-08-19T15:01:44;24.30;1.00
51595;DHT22;37677;53.254;6.594;2022-08-19T15:04:09;24.20;99.90
51595;DHT22;37677;53.254;6.594;2022-08-19T15:06:35;24.20;99.90
51595;DHT22;37677;53.254;6.594;2022-08-19T15:09:02;24.10;99.90
51595;DHT22;37677;53.254;6.594;2022-08-19T15:11:28;24.10;99.90
51595;DHT22;37677;53.254;6.594;2022-08-19T15:13:55;24.10;99.90
51595;DHT22;37677;53.254;6.594;2022-08-19T15:16:23;24.10;99.90
51595;DHT22;37677;53.254;6.594;2022-08-19T15:18:51;24.10;99.90
51595;DHT22;37677;53.254;6.594;2022-08-19T15:21:17;24.10;99.90
51595;DHT22;37677;53.254;6.594;2022-08-19T15:23:47;24.10;1.00
51595;DHT22;37677;53.254;6.594;2022-08-19T15:26:15;24.10;1.00
51595;DHT22;37677;53.254;6.594;2022-08-19T15:28:41;24.10;1.00
51595;DHT22;37677;53.254;6.594;2022-08-19T15:31:07;24.30;1.00
51595;DHT22;37677;53.254;6.594;2022-08-19T15:33:35;24.40;1.00
51595;DHT22;37677;53.254;6.594;2022-08-19T15:36:05;24.50;1.00
51595;DHT22;37677;53.254;6.594;2022-08-19T15:38:31;24.50;99.90
51595;DHT22;37677;53.254;6.594;2022-08-19T15:41:03;24.40;99.90
51595;DHT22;37677;53.254;6.594;2022-08-19T15:43:52;24.30;1.00
51595;DHT22;37677;53.254;6.594;2022-08-19T15:46:21;24.30;57.50